Terminal Aerodrome Forecast
Issued by NWS

Home | Current Version | Previous Version | Text Only | Print | Product List | Glossary On
Versions: 1 2 3 4 5 6 7 8 9 10 11 12 13 14 15 16 17 18 19 20 21
000
FTUS44 KLZK 032320
TAFPBF
TAF
KPBF 032320Z 0400/0424 00000KT P6SM FEW250
     FM040800 00000KT P6SM VCFG SCT050
      TEMPO 0409/0413 4SM BR
     FM041600 15004KT P6SM SCT040=

USA.gov is the U.S. government's official web portal to all federal, state and local government web resources and services.